createdAt,value
2018-08-28T00:02:22.336Z,14.00
2018-08-28T00:04:50.051Z,14.00
2018-08-28T00:07:17.784Z,13.90
2018-08-28T00:09:48.619Z,13.90
2018-08-28T00:12:16.328Z,13.90
2018-08-28T00:14:43.971Z,13.90
2018-08-28T00:17:14.784Z,13.80
2018-08-28T00:19:42.547Z,13.90
2018-08-28T00:22:10.271Z,13.80
2018-08-28T00:24:37.973Z,13.80
2018-08-28T00:27:05.735Z,13.80
2018-08-28T00:29:33.375Z,13.80
2018-08-28T00:32:01.171Z,13.70
2018-08-28T00:34:28.939Z,13.60
2018-08-28T00:36:56.658Z,13.60
2018-08-28T00:39:24.391Z,13.50
2018-08-28T00:41:52.104Z,13.50
2018-08-28T00:44:19.712Z,13.50
2018-08-28T00:46:47.392Z,13.50
2018-08-28T00:49:16.109Z,13.50
2018-08-28T00:51:43.763Z,13.50
2018-08-28T00:54:11.484Z,13.40
2018-08-28T00:56:39.173Z,13.30
2018-08-28T00:59:06.800Z,13.30
2018-08-28T01:01:34.540Z,13.30
2018-08-28T01:04:02.331Z,13.20
2018-08-28T01:06:29.999Z,13.20
2018-08-28T01:08:57.667Z,13.20
2018-08-28T01:11:25.383Z,13.10
2018-08-28T01:13:53.067Z,13.00
2018-08-28T01:16:20.807Z,13.00
2018-08-28T01:18:48.572Z,13.00
2018-08-28T01:21:16.324Z,12.90
2018-08-28T01:23:44.087Z,12.80
2018-08-28T01:26:11.791Z,12.80
2018-08-28T01:28:39.567Z,12.70
2018-08-28T01:31:07.303Z,12.70
2018-08-28T01:33:34.963Z,12.70
2018-08-28T01:36:02.803Z,12.70
2018-08-28T01:38:30.511Z,12.70
2018-08-28T01:40:58.283Z,12.60
2018-08-28T01:43:29.759Z,12.60
2018-08-28T01:45:57.518Z,12.50
2018-08-28T01:48:25.281Z,12.40
2018-08-28T01:50:53.135Z,12.40
2018-08-28T01:53:21.107Z,12.40
2018-08-28T01:55:49.031Z,12.40
2018-08-28T01:58:17.073Z,12.40
2018-08-28T02:00:44.819Z,12.40
2018-08-28T02:03:12.612Z,12.40
2018-08-28T02:05:40.299Z,12.40
2018-08-28T02:08:08.012Z,12.40
2018-08-28T02:10:35.760Z,12.30
2018-08-28T02:13:03.782Z,12.30
2018-08-28T02:15:31.600Z,12.30
2018-08-28T02:17:59.315Z,12.30
2018-08-28T02:20:26.983Z,12.40
2018-08-28T02:22:54.663Z,12.40
2018-08-28T02:25:22.396Z,12.40
2018-08-28T02:27:50.068Z,12.40
2018-08-28T02:30:17.822Z,12.40
2018-08-28T02:32:45.542Z,12.40
2018-08-28T02:35:13.224Z,12.40
2018-08-28T02:37:40.922Z,12.40
2018-08-28T02:40:08.723Z,12.50
2018-08-28T02:42:36.412Z,12.40
2018-08-28T02:45:04.141Z,12.40
2018-08-28T02:47:31.815Z,12.40
2018-08-28T02:49:59.439Z,12.40
2018-08-28T02:52:27.136Z,12.50
2018-08-28T02:54:54.822Z,12.50
2018-08-28T02:57:22.539Z,12.50
2018-08-28T02:59:50.244Z,12.60
2018-08-28T03:02:17.992Z,12.50
2018-08-28T03:04:45.701Z,12.50
2018-08-28T03:07:13.485Z,12.60
2018-08-28T03:09:41.182Z,12.60
2018-08-28T03:12:08.867Z,12.60
2018-08-28T03:14:36.615Z,12.60
2018-08-28T03:17:04.523Z,12.70
2018-08-28T03:19:32.171Z,12.70
2018-08-28T03:21:59.939Z,12.70
2018-08-28T03:24:27.604Z,12.70
2018-08-28T03:26:55.277Z,12.70
2018-08-28T03:29:22.936Z,12.80
2018-08-28T03:31:50.631Z,12.80
2018-08-28T03:34:18.315Z,12.70
2018-08-28T03:36:46.041Z,12.70
2018-08-28T03:39:13.819Z,12.70
2018-08-28T03:41:41.510Z,12.80
2018-08-28T03:44:09.296Z,12.80
2018-08-28T03:46:37.046Z,12.80
2018-08-28T03:49:04.848Z,12.80
2018-08-28T03:51:32.573Z,12.80
2018-08-28T03:54:00.328Z,12.80
2018-08-28T03:56:27.987Z,12.80
2018-08-28T03:58:55.639Z,12.80
2018-08-28T04:01:23.339Z,12.80
2018-08-28T04:03:51.120Z,12.80
2018-08-28T04:06:18.883Z,12.80
2018-08-28T04:08:46.567Z,12.80
2018-08-28T04:11:14.279Z,12.70
2018-08-28T04:13:41.967Z,12.70
2018-08-28T04:16:09.639Z,12.80
2018-08-28T04:18:37.303Z,12.80
2018-08-28T04:21:05.068Z,12.80
2018-08-28T04:23:32.801Z,12.70
2018-08-28T04:26:00.508Z,12.80
2018-08-28T04:28:28.344Z,12.70
2018-08-28T04:30:56.103Z,12.70
2018-08-28T04:33:23.795Z,12.70
2018-08-28T04:35:51.576Z,12.80
2018-08-28T04:38:19.301Z,12.70
2018-08-28T04:40:50.285Z,12.70
2018-08-28T04:43:18.008Z,12.70
2018-08-28T04:45:45.700Z,12.80
2018-08-28T04:48:13.532Z,12.80
2018-08-28T04:50:42.112Z,12.70
2018-08-28T04:53:09.847Z,12.70
2018-08-28T04:55:37.524Z,12.80
2018-08-28T04:58:05.257Z,12.80
2018-08-28T05:00:33.016Z,12.80
2018-08-28T05:03:00.713Z,12.80
2018-08-28T05:05:28.383Z,12.80
2018-08-28T05:07:56.093Z,12.80
2018-08-28T05:10:23.791Z,12.70
2018-08-28T05:12:51.476Z,12.70
2018-08-28T05:15:19.143Z,12.70
2018-08-28T05:17:46.883Z,12.70
2018-08-28T05:20:14.652Z,12.70
2018-08-28T05:22:42.397Z,12.70
2018-08-28T05:25:10.173Z,12.70
2018-08-28T05:27:37.877Z,12.70
2018-08-28T05:30:05.959Z,12.70
2018-08-28T05:32:33.676Z,12.70
2018-08-28T05:35:01.492Z,12.80
2018-08-28T05:37:29.247Z,12.80
2018-08-28T05:39:56.939Z,12.80
2018-08-28T05:42:24.696Z,12.80
2018-08-28T05:44:52.428Z,12.90
2018-08-28T05:47:20.117Z,12.90
2018-08-28T05:49:47.856Z,12.90
2018-08-28T05:52:15.689Z,13.00
2018-08-28T05:54:43.467Z,13.00
2018-08-28T05:57:16.928Z,13.10
2018-08-28T05:59:44.658Z,13.10
2018-08-28T06:02:12.372Z,13.20
2018-08-28T06:04:40.065Z,13.30
2018-08-28T06:07:07.771Z,13.40
2018-08-28T06:09:35.511Z,13.60
2018-08-28T06:12:03.192Z,13.70
2018-08-28T06:14:30.949Z,13.80
2018-08-28T06:16:58.671Z,13.90
2018-08-28T06:19:26.508Z,14.00
2018-08-28T06:21:54.240Z,14.00
2018-08-28T06:24:21.896Z,14.00
2018-08-28T06:26:49.531Z,14.00
2018-08-28T06:29:17.324Z,14.10
2018-08-28T06:31:44.952Z,14.20
2018-08-28T06:34:12.679Z,14.20
2018-08-28T06:36:40.373Z,14.20
2018-08-28T06:39:08.613Z,14.30
2018-08-28T06:41:36.351Z,14.30
2018-08-28T06:44:05.035Z,14.40
2018-08-28T06:46:32.967Z,14.40
2018-08-28T06:49:00.720Z,14.50
2018-08-28T06:51:28.526Z,14.70
2018-08-28T06:53:56.275Z,14.70
2018-08-28T06:56:25.012Z,14.70
2018-08-28T06:58:52.732Z,14.70
2018-08-28T07:01:20.460Z,14.80
2018-08-28T07:03:48.216Z,14.90
2018-08-28T07:06:15.853Z,15.00
2018-08-28T07:08:43.556Z,15.10
2018-08-28T07:11:11.468Z,15.20
2018-08-28T07:13:39.191Z,15.30
2018-08-28T07:16:06.927Z,15.40
2018-08-28T07:18:34.645Z,15.40
2018-08-28T07:21:02.313Z,15.50
2018-08-28T07:23:30.076Z,15.60
2018-08-28T07:25:57.909Z,15.50
2018-08-28T07:28:25.604Z,15.60
2018-08-28T07:30:53.356Z,15.60
2018-08-28T07:33:21.129Z,15.70
2018-08-28T07:35:48.852Z,15.80
2018-08-28T07:38:16.548Z,15.80
2018-08-28T07:40:44.265Z,15.90
2018-08-28T07:43:12.181Z,15.90
2018-08-28T07:45:39.975Z,16.00
2018-08-28T07:48:07.728Z,16.10
2018-08-28T07:50:35.769Z,16.10
2018-08-28T07:53:03.755Z,16.20
2018-08-28T07:55:31.500Z,16.20
2018-08-28T07:57:59.291Z,16.30
2018-08-28T08:00:27.063Z,16.50
2018-08-28T08:02:54.768Z,16.50
2018-08-28T08:05:22.548Z,16.60
2018-08-28T08:07:54.142Z,16.70
2018-08-28T08:10:21.893Z,16.80
2018-08-28T08:12:49.555Z,16.90
2018-08-28T08:15:17.255Z,17.00
2018-08-28T08:17:45.039Z,17.00
2018-08-28T08:20:12.711Z,17.30
2018-08-28T08:22:40.515Z,17.30
2018-08-28T08:25:08.336Z,17.50
2018-08-28T08:27:35.931Z,17.60
2018-08-28T08:30:03.751Z,17.80
2018-08-28T08:32:31.512Z,18.00
2018-08-28T08:34:59.215Z,18.00
2018-08-28T08:37:27.050Z,18.00
2018-08-28T08:39:54.721Z,18.10
2018-08-28T08:42:22.494Z,18.30
2018-08-28T08:44:51.223Z,18.40
2018-08-28T08:47:18.925Z,18.30
2018-08-28T08:49:46.706Z,18.40
2018-08-28T08:52:14.361Z,18.50
2018-08-28T08:54:42.219Z,18.70
2018-08-28T08:57:09.929Z,18.80
2018-08-28T08:59:37.630Z,18.70
2018-08-28T09:02:05.458Z,18.70
2018-08-28T09:04:33.256Z,18.80
2018-08-28T09:07:00.992Z,18.90
2018-08-28T09:09:28.683Z,19.10
2018-08-28T09:11:56.392Z,19.10
2018-08-28T09:14:24.024Z,19.00
2018-08-28T09:16:51.764Z,19.00
2018-08-28T09:19:19.441Z,18.70
2018-08-28T09:21:47.090Z,18.80
2018-08-28T09:24:14.907Z,18.80
2018-08-28T09:26:42.568Z,18.80
2018-08-28T09:29:10.779Z,19.00
2018-08-28T09:31:38.529Z,19.10
2018-08-28T09:34:06.167Z,19.00
2018-08-28T09:36:33.896Z,19.10
2018-08-28T09:39:01.589Z,19.10
2018-08-28T09:41:29.344Z,19.20
2018-08-28T09:43:58.126Z,19.10
2018-08-28T09:46:25.820Z,19.10
2018-08-28T09:48:57.392Z,19.10
2018-08-28T09:51:25.179Z,19.20
2018-08-28T09:53:56.643Z,19.10
2018-08-28T09:56:24.300Z,19.10
2018-08-28T09:58:52.104Z,18.90
2018-08-28T10:01:25.415Z,18.90
2018-08-28T10:03:53.160Z,18.80
2018-08-28T10:06:20.926Z,18.80
2018-08-28T10:08:48.638Z,18.80
2018-08-28T10:11:16.347Z,18.80
2018-08-28T10:13:44.079Z,18.90
2018-08-28T10:16:11.864Z,18.90
2018-08-28T10:18:39.563Z,18.90
2018-08-28T10:21:07.304Z,18.90
2018-08-28T10:23:35.015Z,18.90
2018-08-28T10:26:02.715Z,19.10
2018-08-28T10:28:30.360Z,19.00
2018-08-28T10:30:58.099Z,19.00
2018-08-28T10:33:25.896Z,19.00
2018-08-28T10:38:01.262Z,19.10
2018-08-28T10:40:29.104Z,19.10
2018-08-28T10:42:56.703Z,19.10
2018-08-28T10:45:24.483Z,19.20
2018-08-28T10:47:52.168Z,19.30
2018-08-28T10:50:19.883Z,19.40
2018-08-28T10:52:47.641Z,19.50
2018-08-28T10:55:15.324Z,19.60
2018-08-28T10:57:43.012Z,19.60
2018-08-28T11:00:10.800Z,19.60
2018-08-28T11:02:40.600Z,19.50
2018-08-28T11:05:08.386Z,19.60
2018-08-28T11:07:36.061Z,19.80
2018-08-28T11:10:03.814Z,19.80
2018-08-28T11:12:31.456Z,19.90
2018-08-28T11:15:00.167Z,19.90
2018-08-28T11:17:27.860Z,19.80
2018-08-28T11:19:56.160Z,19.90
2018-08-28T11:22:24.177Z,20.00
2018-08-28T11:24:51.956Z,20.00
2018-08-28T11:27:19.809Z,20.00
2018-08-28T11:29:47.597Z,20.00
2018-08-28T11:32:15.271Z,20.00
2018-08-28T11:34:42.944Z,20.20
2018-08-28T11:37:10.679Z,20.30
2018-08-28T11:39:38.415Z,20.30
2018-08-28T11:42:06.316Z,20.40
2018-08-28T11:44:33.999Z,20.40
2018-08-28T11:47:01.707Z,20.50
2018-08-28T11:49:29.399Z,20.60
2018-08-28T11:51:57.070Z,20.50
2018-08-28T11:54:24.811Z,20.60
2018-08-28T11:56:52.544Z,20.70
2018-08-28T11:59:20.418Z,20.50
2018-08-28T12:01:48.170Z,20.60
2018-08-28T12:04:15.873Z,20.60
2018-08-28T12:06:43.641Z,20.70
2018-08-28T12:09:11.684Z,20.70
2018-08-28T12:11:39.375Z,20.80
2018-08-28T12:14:07.116Z,20.90
2018-08-28T12:16:34.856Z,21.10
2018-08-28T12:19:06.452Z,21.10
2018-08-28T12:21:34.199Z,21.20
2018-08-28T12:24:01.929Z,21.30
2018-08-28T12:26:29.693Z,21.50
2018-08-28T12:29:00.657Z,21.80
2018-08-28T12:31:28.283Z,22.20
2018-08-28T12:33:56.064Z,22.40
2018-08-28T12:36:27.468Z,22.50
2018-08-28T12:38:55.226Z,22.40
2018-08-28T12:41:22.998Z,22.50
2018-08-28T12:43:50.806Z,22.60
2018-08-28T12:46:18.423Z,22.60
2018-08-28T12:48:46.124Z,22.80
2018-08-28T12:51:13.950Z,22.60
2018-08-28T12:53:41.650Z,22.80
2018-08-28T12:56:09.424Z,23.10
2018-08-28T12:58:37.103Z,23.50
2018-08-28T13:01:04.859Z,23.40
2018-08-28T13:03:32.559Z,23.20
2018-08-28T13:06:00.372Z,23.00
2018-08-28T13:08:28.232Z,23.00
2018-08-28T13:10:56.009Z,23.30
2018-08-28T13:13:23.747Z,23.50
2018-08-28T13:15:51.480Z,24.00
2018-08-28T13:18:19.228Z,24.70
2018-08-28T13:20:46.913Z,24.90
2018-08-28T13:23:14.712Z,25.20
2018-08-28T13:25:42.472Z,25.70
2018-08-28T13:28:10.104Z,25.90
2018-08-28T13:30:37.852Z,26.10
2018-08-28T13:33:05.683Z,26.30
2018-08-28T13:35:33.414Z,26.10
2018-08-28T13:38:01.134Z,25.90
2018-08-28T13:40:28.952Z,25.70
2018-08-28T13:42:56.624Z,26.00
2018-08-28T13:45:24.359Z,26.50
2018-08-28T13:47:52.093Z,26.90
2018-08-28T13:50:20.312Z,27.40
2018-08-28T13:52:48.064Z,27.50
2018-08-28T13:55:15.752Z,27.80
2018-08-28T13:57:46.672Z,27.90
2018-08-28T14:00:14.416Z,27.90
2018-08-28T14:02:42.420Z,27.80
2018-08-28T14:05:10.092Z,27.90
2018-08-28T14:07:37.861Z,28.00
2018-08-28T14:10:05.875Z,28.30
2018-08-28T14:12:33.596Z,28.30
2018-08-28T14:15:01.465Z,28.20
2018-08-28T14:17:29.004Z,28.10
2018-08-28T14:19:56.647Z,28.10
2018-08-28T14:22:24.428Z,28.30
2018-08-28T14:24:52.060Z,28.20
2018-08-28T14:27:19.871Z,28.00
2018-08-28T14:29:47.489Z,28.40
2018-08-28T14:32:15.249Z,28.10
2018-08-28T14:34:43.011Z,28.10
2018-08-28T14:37:10.676Z,28.00
2018-08-28T14:39:38.300Z,28.20
2018-08-28T14:42:06.009Z,28.20
2018-08-28T14:44:34.113Z,28.30
2018-08-28T14:47:02.280Z,28.70
2018-08-28T14:49:29.992Z,28.50
2018-08-28T14:51:57.716Z,27.90
2018-08-28T14:54:25.364Z,27.70
2018-08-28T14:56:53.144Z,27.40
2018-08-28T14:59:20.764Z,27.30
2018-08-28T15:01:48.420Z,27.20
2018-08-28T15:04:16.155Z,27.00
2018-08-28T15:06:43.899Z,26.90
2018-08-28T15:09:11.620Z,26.80
2018-08-28T15:11:39.396Z,26.80
2018-08-28T15:14:07.169Z,27.00
2018-08-28T15:16:35.175Z,27.00
2018-08-28T15:19:02.879Z,26.70
2018-08-28T15:21:30.640Z,26.30
2018-08-28T15:23:58.288Z,25.80
2018-08-28T15:26:25.880Z,25.50
2018-08-28T15:28:53.559Z,25.30
2018-08-28T15:31:21.331Z,25.10
2018-08-28T15:33:49.102Z,24.90
2018-08-28T15:36:16.768Z,24.70
2018-08-28T15:38:44.437Z,24.50
2018-08-28T15:41:12.168Z,24.40
2018-08-28T15:43:39.876Z,24.20
2018-08-28T15:46:07.560Z,24.00
2018-08-28T15:48:35.225Z,23.90
2018-08-28T15:51:02.951Z,23.70
2018-08-28T15:53:30.711Z,23.70
2018-08-28T15:55:58.458Z,23.60
2018-08-28T15:58:26.215Z,23.50
2018-08-28T16:00:53.963Z,23.40
2018-08-28T16:03:21.637Z,23.40
2018-08-28T16:05:49.308Z,23.40
2018-08-28T16:08:17.089Z,23.30
2018-08-28T16:10:44.743Z,23.20
2018-08-28T16:13:12.421Z,23.00
2018-08-28T16:15:45.651Z,23.00
2018-08-28T16:18:13.457Z,23.00
2018-08-28T16:20:41.141Z,22.90
2018-08-28T16:23:13.298Z,22.80
2018-08-28T16:25:41.047Z,22.70
2018-08-28T16:28:08.710Z,22.70
2018-08-28T16:30:36.384Z,22.50
2018-08-28T16:33:04.159Z,22.40
2018-08-28T16:35:31.967Z,22.30
2018-08-28T16:37:59.648Z,22.40
2018-08-28T16:40:27.348Z,22.30
2018-08-28T16:42:55.116Z,22.20
2018-08-28T16:45:22.758Z,22.10
2018-08-28T16:47:50.411Z,22.00
2018-08-28T16:50:18.126Z,22.00
2018-08-28T16:52:45.868Z,21.90
2018-08-28T16:55:13.592Z,21.90
2018-08-28T16:57:41.275Z,21.80
2018-08-28T17:00:09.055Z,21.70
2018-08-28T17:02:36.652Z,21.60
2018-08-28T17:05:04.879Z,21.60
2018-08-28T17:07:32.814Z,21.50
2018-08-28T17:10:00.525Z,21.40
2018-08-28T17:12:28.304Z,21.40
2018-08-28T17:14:56.218Z,21.30
2018-08-28T17:17:24.058Z,21.20
2018-08-28T17:19:51.812Z,21.20
2018-08-28T17:22:19.539Z,21.10
2018-08-28T17:24:47.321Z,21.10
2018-08-28T17:27:14.988Z,21.10
2018-08-28T17:29:42.639Z,21.00
2018-08-28T17:34:18.321Z,20.90
2018-08-28T17:36:46.100Z,20.80
2018-08-28T17:39:13.809Z,20.80
2018-08-28T17:41:41.474Z,20.80
2018-08-28T17:44:09.284Z,20.70
2018-08-28T17:46:37.492Z,20.60
2018-08-28T17:49:05.282Z,20.60
2018-08-28T17:51:33.383Z,20.50
2018-08-28T17:54:01.090Z,20.40
2018-08-28T17:56:28.871Z,20.30
2018-08-28T17:58:56.676Z,20.30
2018-08-28T18:01:24.431Z,20.20
2018-08-28T18:03:52.158Z,20.10
2018-08-28T18:06:19.918Z,20.00
2018-08-28T18:08:47.620Z,19.90
2018-08-28T18:11:16.172Z,19.90
2018-08-28T18:13:43.901Z,19.80
2018-08-28T18:16:12.579Z,19.80
2018-08-28T18:18:40.273Z,19.70
2018-08-28T18:21:08.999Z,19.60
2018-08-28T18:23:36.681Z,19.50
2018-08-28T18:26:04.795Z,19.40
2018-08-28T18:28:32.996Z,19.30
2018-08-28T18:31:00.712Z,19.20
2018-08-28T18:33:28.451Z,19.20
2018-08-28T18:35:56.187Z,19.10
2018-08-28T18:38:24.934Z,19.00
2018-08-28T18:40:52.627Z,18.90
2018-08-28T18:43:20.352Z,18.90
2018-08-28T18:45:48.104Z,18.80
2018-08-28T18:48:15.839Z,18.70
2018-08-28T18:50:43.650Z,18.60
2018-08-28T18:53:11.315Z,18.50
2018-08-28T18:55:39.232Z,18.40
2018-08-28T18:58:07.472Z,18.30
2018-08-28T19:00:35.273Z,18.30
2018-08-28T19:03:03.090Z,18.20
2018-08-28T19:05:30.784Z,18.20
2018-08-28T19:07:58.803Z,18.20
2018-08-28T19:10:26.682Z,18.10
2018-08-28T19:12:54.502Z,18.10
2018-08-28T19:15:22.221Z,18.10
2018-08-28T19:17:50.292Z,18.10
2018-08-28T19:20:18.111Z,18.00
2018-08-28T19:22:45.875Z,17.90
2018-08-28T19:25:13.764Z,17.80
2018-08-28T19:27:41.614Z,17.80
2018-08-28T19:30:09.445Z,17.70
2018-08-28T19:32:37.614Z,17.70
2018-08-28T19:35:06.224Z,17.70
2018-08-28T19:37:34.289Z,17.60
2018-08-28T19:40:05.313Z,17.50
2018-08-28T19:42:33.161Z,17.40
2018-08-28T19:45:00.931Z,17.40
2018-08-28T19:47:32.810Z,17.30
2018-08-28T19:50:01.328Z,17.30
2018-08-28T19:52:29.246Z,17.30
2018-08-28T19:54:57.465Z,17.20
2018-08-28T19:57:26.138Z,17.20
2018-08-28T19:59:54.193Z,17.10
2018-08-28T20:02:25.946Z,17.00
2018-08-28T20:04:53.996Z,17.00
2018-08-28T20:07:21.904Z,16.90
2018-08-28T20:09:49.698Z,16.90
2018-08-28T20:12:17.512Z,16.80
2018-08-28T20:14:45.210Z,16.80
2018-08-28T20:17:12.927Z,16.80
2018-08-28T20:19:40.656Z,16.70
2018-08-28T20:22:09.195Z,16.70
2018-08-28T20:24:36.932Z,16.60
2018-08-28T20:27:04.805Z,16.60
2018-08-28T20:29:32.479Z,16.50
2018-08-28T20:32:00.253Z,16.50
2018-08-28T20:34:27.988Z,16.50
2018-08-28T20:36:55.687Z,16.40
2018-08-28T20:39:23.375Z,16.40
2018-08-28T20:41:51.110Z,16.40
2018-08-28T20:44:18.739Z,16.30
2018-08-28T20:46:46.423Z,16.30
2018-08-28T20:49:14.092Z,16.30
2018-08-28T20:51:41.796Z,16.20
2018-08-28T20:54:09.573Z,16.30
2018-08-28T20:56:37.284Z,16.20
2018-08-28T20:59:05.036Z,16.20
2018-08-28T21:01:32.796Z,16.20
2018-08-28T21:04:00.622Z,16.20
2018-08-28T21:06:28.373Z,16.20
2018-08-28T21:08:56.028Z,16.10
2018-08-28T21:11:23.717Z,16.10
2018-08-28T21:13:51.384Z,16.00
2018-08-28T21:16:19.084Z,16.00
2018-08-28T21:18:46.882Z,15.90
2018-08-28T21:21:14.671Z,15.90
2018-08-28T21:23:42.420Z,15.80
2018-08-28T21:26:10.199Z,15.80
2018-08-28T21:28:37.816Z,15.80
2018-08-28T21:31:05.590Z,15.70
2018-08-28T21:33:33.298Z,15.70
2018-08-28T21:36:01.021Z,15.70
2018-08-28T21:38:28.815Z,15.60
2018-08-28T21:40:56.483Z,15.60
2018-08-28T21:43:24.212Z,15.50
2018-08-28T21:45:51.977Z,15.50
2018-08-28T21:48:19.779Z,15.40
2018-08-28T21:50:47.447Z,15.40
2018-08-28T21:53:15.189Z,15.40
2018-08-28T21:55:42.892Z,15.40
2018-08-28T21:58:10.623Z,15.30
2018-08-28T22:00:38.423Z,15.30
2018-08-28T22:03:06.115Z,15.20
2018-08-28T22:05:34.131Z,15.20
2018-08-28T22:08:03.311Z,15.10
2018-08-28T22:10:31.524Z,15.10
2018-08-28T22:12:59.263Z,15.10
2018-08-28T22:15:26.965Z,15.00
2018-08-28T22:17:55.120Z,14.90
2018-08-28T22:20:22.949Z,14.90
2018-08-28T22:22:51.280Z,14.90
2018-08-28T22:25:18.980Z,14.90
2018-08-28T22:27:46.646Z,14.90
2018-08-28T22:30:14.383Z,14.90
2018-08-28T22:32:42.887Z,14.80
2018-08-28T22:35:10.612Z,14.80
2018-08-28T22:37:38.255Z,14.80
2018-08-28T22:40:08.232Z,14.70
2018-08-28T22:42:35.955Z,14.70
2018-08-28T22:45:03.768Z,14.60
2018-08-28T22:47:31.612Z,14.60
2018-08-28T22:49:59.341Z,14.50
2018-08-28T22:52:27.039Z,14.50
2018-08-28T22:54:54.709Z,14.50
2018-08-28T22:57:22.373Z,14.40
2018-08-28T22:59:50.147Z,14.40
2018-08-28T23:02:17.863Z,14.40
2018-08-28T23:04:45.636Z,14.40
2018-08-28T23:07:13.380Z,14.30
2018-08-28T23:09:41.116Z,14.30
2018-08-28T23:12:09.920Z,14.30
2018-08-28T23:14:37.676Z,14.20
2018-08-28T23:17:08.748Z,14.20
2018-08-28T23:19:36.506Z,14.20
2018-08-28T23:22:04.267Z,14.10
2018-08-28T23:24:31.980Z,14.10
2018-08-28T23:26:59.664Z,14.10
2018-08-28T23:29:27.347Z,14.10
2018-08-28T23:31:55.071Z,14.00
2018-08-28T23:34:22.804Z,14.00
2018-08-28T23:36:54.272Z,13.90
2018-08-28T23:39:22.008Z,13.90
2018-08-28T23:41:49.724Z,13.90
2018-08-28T23:44:17.499Z,13.90
2018-08-28T23:46:45.235Z,13.90
2018-08-28T23:49:16.790Z,13.90
2018-08-28T23:51:44.575Z,13.80
2018-08-28T23:54:12.319Z,13.80
2018-08-28T23:56:40.066Z,13.80
2018-08-28T23:59:07.715Z,13.80
